Terminal Aerodrome Forecast
Issued by NWS Bismarck, ND

Home | Current Version | Previous Version | Text Only | Print | Product List | Glossary Off
Versions: 1 2 3 4 5 6 7 8 9 10 11 12 13 14 15 16 17 18 19

000
FTUS43 KBIS 301500 AAA
TAFBIS
TAF AMD
KBIS 301506Z 3015/3112 15010KT P6SM SKC
      TEMPO 3015/3016 1/2SM FG
     FM310300 14011KT P6SM -SHRA VCTS BKN050CB
     FM310900 32008KT P6SM VCSH OVC030=

USA.gov is the U.S. government's official web portal to all federal, state and local government web resources and services.